Eendracht — PDVN — position and weather

sailwx.info

Track history (hours):
 
Tides and Currents Weather Stations Pressure Air Temp Water Temp Dewpoint Dewpoint Depression Visibility Wind Speed Wind Dir Waves Ship Positions

Eendracht (Netherlands)

Last reported at 2017-Feb-18 10:33 UTC. Time now 2017-Feb-20 04:52 UTC.
Position N 28°08' W 015°25'.

Length 59 m; beam 12 m; draft 5 m.

Type: Sailing vessel. MMSI: 244543000.

Date/timePositionNaut miles runAvg speedWind from/ knotsBaromVisibWave heightAir tempDewpointWater temp
2017-Feb-18 10:33N 28°08' W 015°25'0 0.0
2017-Feb-18 09:33N 28°08' W 015°25'0 0.0
2017-Feb-18 08:33N 28°08' W 015°25'0 0.0
2017-Feb-18 07:33N 28°08' W 015°25'0 0.0
2017-Feb-18 06:33N 28°08' W 015°25'0 0.0
2017-Feb-18 05:33N 28°08' W 015°25'0 0.0
2017-Feb-18 04:33N 28°08' W 015°25'0 0.0
2017-Feb-18 03:33N 28°08' W 015°25'0 0.0
2017-Feb-18 02:33N 28°08' W 015°25'0 0.0
2017-Feb-18 01:33N 28°08' W 015°25'0 0.0
2017-Feb-18 00:33N 28°08' W 015°25'0 0.0
2017-Feb-17 23:33N 28°08' W 015°25'0 0.0
2017-Feb-17 22:33N 28°08' W 015°25'0 0.0
2017-Feb-17 21:33N 28°08' W 015°25'0 0.0
2017-Feb-17 20:33N 28°08' W 015°25'0 0.0
2017-Feb-17 19:33N 28°08' W 015°25'0 0.0
2017-Feb-17 18:33N 28°08' W 015°25'0 0.0
2017-Feb-17 17:33N 28°08' W 015°25'0 0.0
2017-Feb-17 16:33N 28°08' W 015°25'0 0.0
2017-Feb-17 15:33N 28°08' W 015°25'0 0.0
2017-Feb-17 14:33N 28°08' W 015°25'0 0.0
2017-Feb-17 13:33N 28°08' W 015°25'0 0.0
2017-Feb-17 12:33N 28°08' W 015°25'0 0.0
2017-Feb-17 11:33N 28°08' W 015°25'1 1.2
2017-Feb-17 10:33N 28°07' W 015°25'4 3.6
2017-Feb-17 09:33N 28°06' W 015°21'2 2.4
2017-Feb-17 08:33N 28°05' W 015°19'4 4.4
2017-Feb-17 07:33N 28°06' W 015°14'6 5.6
2017-Feb-17 06:33N 28°09' W 015°09'5 5.4
2017-Feb-17 05:33N 28°11' W 015°03'5 5.4
2017-Feb-17 04:33N 28°14' W 014°58'5 4.6
2017-Feb-17 03:33N 28°18' W 014°55'5 4.7
2017-Feb-17 02:33N 28°21' W 014°51'5 5.4
2017-Feb-17 01:33N 28°25' W 014°47'4 4.0
2017-Feb-17 00:33N 28°27' W 014°43'4 3.7
2017-Feb-16 23:33N 28°29' W 014°39'4 3.9
2017-Feb-16 22:33N 28°30' W 014°35'5 4.8
2017-Feb-16 21:33N 28°32' W 014°30'5 5.1
2017-Feb-16 20:33N 28°34' W 014°25'3 3.1
2017-Feb-16 19:33N 28°34' W 014°28'7 6.6
2017-Feb-16 18:33N 28°35' W 014°35'7 7.4
2017-Feb-16 17:33N 28°35' W 014°44'7 6.9
2017-Feb-16 16:33N 28°36' W 014°52'6 6.3
2017-Feb-16 15:33N 28°36' W 014°59'5 5.1
2017-Feb-16 14:33N 28°37' W 015°05'4 3.9
2017-Feb-16 13:33N 28°37' W 015°09'4 3.8
2017-Feb-16 12:33N 28°37' W 015°13'3 2.7
2017-Feb-16 11:33N 28°38' W 015°16'4 3.9
2017-Feb-16 10:33N 28°41' W 015°19'4 3.8
2017-Feb-16 09:33N 28°43' W 015°22'4 3.9
2017-Feb-16 08:33N 28°44' W 015°27'4 3.6
2017-Feb-16 07:33N 28°44' W 015°31'3 3.0
2017-Feb-16 06:33N 28°43' W 015°34'4 3.6
2017-Feb-16 05:33N 28°40' W 015°36'4 3.9
2017-Feb-16 04:33N 28°37' W 015°39'4 4.3
2017-Feb-16 03:33N 28°33' W 015°42'4 4.4
2017-Feb-16 02:33N 28°30' W 015°45'5 4.6
2017-Feb-16 01:33N 28°26' W 015°48'4 4.5
2017-Feb-16 00:33N 28°23' W 015°51'4 4.3
2017-Feb-15 23:33N 28°19' W 015°54'4 4.3
2017-Feb-15 22:32N 28°15' W 015°57'7 3.5
2017-Feb-15 20:33N 28°17' W 016°04'  
2017-Feb-12 02:24N 27°36' W 015°24'6 5.2
2017-Feb-12 01:10N 27°33' W 015°18'2 3.7
2017-Feb-12 00:32N 27°31' W 015°16'2 2.0
2017-Feb-11 23:31N 27°33' W 015°16'4 4.3
2017-Feb-11 22:33N 27°37' W 015°17'5 4.7
2017-Feb-11 21:33N 27°42' W 015°18'5 5.3
2017-Feb-11 20:33N 27°47' W 015°18'4 4.1
2017-Feb-11 19:33N 27°51' W 015°17'5 4.8
2017-Feb-11 18:33N 27°56' W 015°17'6 5.7
2017-Feb-11 17:33N 28°01' W 015°20'7 6.6
2017-Feb-11 16:33N 28°07' W 015°24'2 2.2
2017-Feb-11 15:33N 28°08' W 015°26'0 0.0
2017-Feb-11 14:33N 28°08' W 015°26'0 0.0
2017-Feb-11 13:30N 28°08' W 015°26'0 0.0
2017-Feb-11 12:18N 28°08' W 015°26'0 0.0
2017-Feb-11 11:33N 28°08' W 015°26'0 0.0
2017-Feb-11 10:33N 28°08' W 015°26'0 0.0
2017-Feb-11 09:33N 28°08' W 015°26'0 0.0
2017-Feb-11 08:33N 28°08' W 015°26'0 0.0
2017-Feb-11 07:33N 28°08' W 015°26'0 0.0
2017-Feb-11 06:24N 28°08' W 015°26'0 0.0
2017-Feb-11 05:24N 28°08' W 015°26'0 0.0
2017-Feb-11 04:24N 28°08' W 015°26'0 0.0
2017-Feb-11 03:24N 28°08' W 015°26'0 0.0
2017-Feb-11 02:24N 28°08' W 015°26'0 0.0
2017-Feb-11 01:26N 28°08' W 015°26'0 0.0
2017-Feb-11 00:26N 28°08' W 015°26'0 0.0
2017-Feb-10 23:29N 28°08' W 015°26'0 0.0
2017-Feb-10 22:29N 28°08' W 015°26'0 0.0
2017-Feb-10 21:29N 28°08' W 015°26'0 0.0
2017-Feb-10 20:29N 28°08' W 015°26'0 0.0
2017-Feb-10 19:11N 28°08' W 015°26'0 0.0
2017-Feb-10 18:32N 28°08' W 015°26'0 0.0
2017-Feb-10 17:32N 28°08' W 015°26'0 0.0
2017-Feb-10 16:29N 28°08' W 015°26'0 0.0
2017-Feb-10 15:29N 28°08' W 015°26'0 0.0
2017-Feb-10 14:14N 28°08' W 015°26'0 0.0
2017-Feb-10 13:05N 28°08' W 015°26'0 0.0
2017-Feb-10 12:29N 28°08' W 015°26'0 0.0
2017-Feb-10 11:20N 28°08' W 015°26'0 0.0
2017-Feb-10 10:32N 28°08' W 015°26'0 0.0
2017-Feb-10 09:17N 28°08' W 015°26'0 0.0
2017-Feb-10 08:32N 28°08' W 015°26'0 0.0
2017-Feb-10 07:32N 28°08' W 015°26'0 0.0
2017-Feb-10 06:32N 28°08' W 015°26'0 0.0
2017-Feb-10 05:20N 28°08' W 015°26'0 0.0
2017-Feb-10 04:23N 28°08' W 015°26'0 0.0
2017-Feb-10 03:26N 28°08' W 015°26'0 0.0
2017-Feb-10 02:26N 28°08' W 015°26'0 0.0
2017-Feb-10 01:23N 28°08' W 015°26'0 0.0
2017-Feb-10 00:23N 28°08' W 015°26'0 0.0
2017-Feb-09 23:08N 28°08' W 015°26'0 0.0
2017-Feb-09 22:29N 28°08' W 015°26'0 0.0
2017-Feb-09 21:26N 28°08' W 015°26'0 0.0
2017-Feb-09 19:29N 28°08' W 015°26'0 0.0
2017-Feb-09 18:29N 28°08' W 015°26'0 0.0
2017-Feb-09 17:32N 28°08' W 015°26'0 0.0
2017-Feb-09 16:32N 28°08' W 015°26'0 0.0
2017-Feb-09 15:32N 28°08' W 015°26'0 0.0
2017-Feb-09 14:17N 28°08' W 015°26'0 0.0
2017-Feb-09 13:31N 28°08' W 015°26'0 0.0
2017-Feb-09 12:32N 28°08' W 015°26'0 0.0
2017-Feb-09 11:31N 28°08' W 015°26'0 0.0
2017-Feb-09 10:31N 28°08' W 015°26'0 0.0
2017-Feb-09 09:31N 28°08' W 015°26'0 0.0
2017-Feb-09 08:31N 28°08' W 015°26'0 0.0
2017-Feb-09 07:31N 28°08' W 015°26'0 0.0
2017-Feb-09 06:22N 28°08' W 015°26'0 0.0
2017-Feb-09 05:22N 28°08' W 015°26'0 0.0
2017-Feb-09 04:22N 28°08' W 015°26'0 0.0
2017-Feb-09 03:22N 28°08' W 015°26'0 0.0
2017-Feb-09 02:07N 28°08' W 015°26'0 0.0
2017-Feb-09 01:25N 28°08' W 015°26'0 0.0
2017-Feb-09 00:25N 28°08' W 015°26'0 0.0
2017-Feb-08 23:22N 28°08' W 015°26'0 0.0
2017-Feb-08 22:25N 28°08' W 015°26'0 0.0
2017-Feb-08 21:28N 28°08' W 015°26'0 0.0
2017-Feb-08 20:25N 28°08' W 015°26'0 0.0
2017-Feb-08 19:28N 28°08' W 015°26'0 0.0
2017-Feb-08 18:25N 28°08' W 015°26'0 0.0
2017-Feb-08 17:28N 28°08' W 015°26'0 0.0
2017-Feb-08 15:31N 28°08' W 015°26'1 1.1
2017-Feb-08 14:33N 28°08' W 015°25'5 4.5
2017-Feb-08 13:33N 28°12' W 015°24'7 6.5
2017-Feb-08 12:33N 28°12' W 015°32'7 6.5
2017-Feb-08 11:33N 28°13' W 015°39'  
Track history (hours):
 
Tides and Currents Weather Stations Pressure Air Temp Water Temp Dewpoint Dewpoint Depression Visibility Wind Speed Wind Dir Waves Ship Positions

Eendracht (Netherlands)

Last reported at 2017-Feb-18 10:33 UTC. Time now 2017-Feb-20 04:52 UTC.
Position N 28°08' W 015°25'.

Length 59 m; beam 12 m; draft 5 m.

Type: Sailing vessel. MMSI: 244543000.

Date/timePositionNaut miles runAvg speedWind from/ knotsBaromVisibWave heightAir tempDewpointWater temp
2017-Feb-18 10:33N 28°08' W 015°25'0 0.0
2017-Feb-18 09:33N 28°08' W 015°25'0 0.0
2017-Feb-18 08:33N 28°08' W 015°25'0 0.0
2017-Feb-18 07:33N 28°08' W 015°25'0 0.0
2017-Feb-18 06:33N 28°08' W 015°25'0 0.0
2017-Feb-18 05:33N 28°08' W 015°25'0 0.0
2017-Feb-18 04:33N 28°08' W 015°25'0 0.0
2017-Feb-18 03:33N 28°08' W 015°25'0 0.0
2017-Feb-18 02:33N 28°08' W 015°25'0 0.0
2017-Feb-18 01:33N 28°08' W 015°25'0 0.0
2017-Feb-18 00:33N 28°08' W 015°25'0 0.0
2017-Feb-17 23:33N 28°08' W 015°25'0 0.0
2017-Feb-17 22:33N 28°08' W 015°25'0 0.0
2017-Feb-17 21:33N 28°08' W 015°25'0 0.0
2017-Feb-17 20:33N 28°08' W 015°25'0 0.0
2017-Feb-17 19:33N 28°08' W 015°25'0 0.0
2017-Feb-17 18:33N 28°08' W 015°25'0 0.0
2017-Feb-17 17:33N 28°08' W 015°25'0 0.0
2017-Feb-17 16:33N 28°08' W 015°25'0 0.0
2017-Feb-17 15:33N 28°08' W 015°25'0 0.0
2017-Feb-17 14:33N 28°08' W 015°25'0 0.0
2017-Feb-17 13:33N 28°08' W 015°25'0 0.0
2017-Feb-17 12:33N 28°08' W 015°25'0 0.0
2017-Feb-17 11:33N 28°08' W 015°25'1 1.2
2017-Feb-17 10:33N 28°07' W 015°25'4 3.6
2017-Feb-17 09:33N 28°06' W 015°21'2 2.4
2017-Feb-17 08:33N 28°05' W 015°19'4 4.4
2017-Feb-17 07:33N 28°06' W 015°14'6 5.6
2017-Feb-17 06:33N 28°09' W 015°09'5 5.4
2017-Feb-17 05:33N 28°11' W 015°03'5 5.4
2017-Feb-17 04:33N 28°14' W 014°58'5 4.6
2017-Feb-17 03:33N 28°18' W 014°55'5 4.7
2017-Feb-17 02:33N 28°21' W 014°51'5 5.4
2017-Feb-17 01:33N 28°25' W 014°47'4 4.0
2017-Feb-17 00:33N 28°27' W 014°43'4 3.7
2017-Feb-16 23:33N 28°29' W 014°39'4 3.9
2017-Feb-16 22:33N 28°30' W 014°35'5 4.8
2017-Feb-16 21:33N 28°32' W 014°30'5 5.1
2017-Feb-16 20:33N 28°34' W 014°25'3 3.1
2017-Feb-16 19:33N 28°34' W 014°28'7 6.6
2017-Feb-16 18:33N 28°35' W 014°35'7 7.4
2017-Feb-16 17:33N 28°35' W 014°44'7 6.9
2017-Feb-16 16:33N 28°36' W 014°52'6 6.3
2017-Feb-16 15:33N 28°36' W 014°59'5 5.1
2017-Feb-16 14:33N 28°37' W 015°05'4 3.9
2017-Feb-16 13:33N 28°37' W 015°09'4 3.8
2017-Feb-16 12:33N 28°37' W 015°13'3 2.7
2017-Feb-16 11:33N 28°38' W 015°16'4 3.9
2017-Feb-16 10:33N 28°41' W 015°19'4 3.8
2017-Feb-16 09:33N 28°43' W 015°22'4 3.9
2017-Feb-16 08:33N 28°44' W 015°27'4 3.6
2017-Feb-16 07:33N 28°44' W 015°31'3 3.0
2017-Feb-16 06:33N 28°43' W 015°34'4 3.6
2017-Feb-16 05:33N 28°40' W 015°36'4 3.9
2017-Feb-16 04:33N 28°37' W 015°39'4 4.3
2017-Feb-16 03:33N 28°33' W 015°42'4 4.4
2017-Feb-16 02:33N 28°30' W 015°45'5 4.6
2017-Feb-16 01:33N 28°26' W 015°48'4 4.5
2017-Feb-16 00:33N 28°23' W 015°51'4 4.3
2017-Feb-15 23:33N 28°19' W 015°54'4 4.3
2017-Feb-15 22:32N 28°15' W 015°57'7 3.5
2017-Feb-15 20:33N 28°17' W 016°04'  
2017-Feb-12 02:24N 27°36' W 015°24'6 5.2
2017-Feb-12 01:10N 27°33' W 015°18'2 3.7
2017-Feb-12 00:32N 27°31' W 015°16'2 2.0
2017-Feb-11 23:31N 27°33' W 015°16'4 4.3
2017-Feb-11 22:33N 27°37' W 015°17'5 4.7
2017-Feb-11 21:33N 27°42' W 015°18'5 5.3
2017-Feb-11 20:33N 27°47' W 015°18'4 4.1
2017-Feb-11 19:33N 27°51' W 015°17'5 4.8
2017-Feb-11 18:33N 27°56' W 015°17'6 5.7
2017-Feb-11 17:33N 28°01' W 015°20'7 6.6
2017-Feb-11 16:33N 28°07' W 015°24'2 2.2
2017-Feb-11 15:33N 28°08' W 015°26'0 0.0
2017-Feb-11 14:33N 28°08' W 015°26'0 0.0
2017-Feb-11 13:30N 28°08' W 015°26'0 0.0
2017-Feb-11 12:18N 28°08' W 015°26'0 0.0
2017-Feb-11 11:33N 28°08' W 015°26'0 0.0
2017-Feb-11 10:33N 28°08' W 015°26'0 0.0
2017-Feb-11 09:33N 28°08' W 015°26'0 0.0
2017-Feb-11 08:33N 28°08' W 015°26'0 0.0
2017-Feb-11 07:33N 28°08' W 015°26'0 0.0
2017-Feb-11 06:24N 28°08' W 015°26'0 0.0
2017-Feb-11 05:24N 28°08' W 015°26'0 0.0
2017-Feb-11 04:24N 28°08' W 015°26'0 0.0
2017-Feb-11 03:24N 28°08' W 015°26'0 0.0
2017-Feb-11 02:24N 28°08' W 015°26'0 0.0
2017-Feb-11 01:26N 28°08' W 015°26'0 0.0
2017-Feb-11 00:26N 28°08' W 015°26'0 0.0
2017-Feb-10 23:29N 28°08' W 015°26'0 0.0
2017-Feb-10 22:29N 28°08' W 015°26'0 0.0
2017-Feb-10 21:29N 28°08' W 015°26'0 0.0
2017-Feb-10 20:29N 28°08' W 015°26'0 0.0
2017-Feb-10 19:11N 28°08' W 015°26'0 0.0
2017-Feb-10 18:32N 28°08' W 015°26'0 0.0
2017-Feb-10 17:32N 28°08' W 015°26'0 0.0
2017-Feb-10 16:29N 28°08' W 015°26'0 0.0
2017-Feb-10 15:29N 28°08' W 015°26'0 0.0
2017-Feb-10 14:14N 28°08' W 015°26'0 0.0
2017-Feb-10 13:05N 28°08' W 015°26'0 0.0
2017-Feb-10 12:29N 28°08' W 015°26'0 0.0
2017-Feb-10 11:20N 28°08' W 015°26'0 0.0
2017-Feb-10 10:32N 28°08' W 015°26'0 0.0
2017-Feb-10 09:17N 28°08' W 015°26'0 0.0
2017-Feb-10 08:32N 28°08' W 015°26'0 0.0
2017-Feb-10 07:32N 28°08' W 015°26'0 0.0
2017-Feb-10 06:32N 28°08' W 015°26'0 0.0
2017-Feb-10 05:20N 28°08' W 015°26'0 0.0
2017-Feb-10 04:23N 28°08' W 015°26'0 0.0
2017-Feb-10 03:26N 28°08' W 015°26'0 0.0
2017-Feb-10 02:26N 28°08' W 015°26'0 0.0
2017-Feb-10 01:23N 28°08' W 015°26'0 0.0
2017-Feb-10 00:23N 28°08' W 015°26'0 0.0
2017-Feb-09 23:08N 28°08' W 015°26'0 0.0
2017-Feb-09 22:29N 28°08' W 015°26'0 0.0
2017-Feb-09 21:26N 28°08' W 015°26'0 0.0
2017-Feb-09 19:29N 28°08' W 015°26'0 0.0
2017-Feb-09 18:29N 28°08' W 015°26'0 0.0
2017-Feb-09 17:32N 28°08' W 015°26'0 0.0
2017-Feb-09 16:32N 28°08' W 015°26'0 0.0
2017-Feb-09 15:32N 28°08' W 015°26'0 0.0
2017-Feb-09 14:17N 28°08' W 015°26'0 0.0
2017-Feb-09 13:31N 28°08' W 015°26'0 0.0
2017-Feb-09 12:32N 28°08' W 015°26'0 0.0
2017-Feb-09 11:31N 28°08' W 015°26'0 0.0
2017-Feb-09 10:31N 28°08' W 015°26'0 0.0
2017-Feb-09 09:31N 28°08' W 015°26'0 0.0
2017-Feb-09 08:31N 28°08' W 015°26'0 0.0
2017-Feb-09 07:31N 28°08' W 015°26'0 0.0
2017-Feb-09 06:22N 28°08' W 015°26'0 0.0
2017-Feb-09 05:22N 28°08' W 015°26'0 0.0
2017-Feb-09 04:22N 28°08' W 015°26'0 0.0
2017-Feb-09 03:22N 28°08' W 015°26'0 0.0
2017-Feb-09 02:07N 28°08' W 015°26'0 0.0
2017-Feb-09 01:25N 28°08' W 015°26'0 0.0
2017-Feb-09 00:25N 28°08' W 015°26'0 0.0
2017-Feb-08 23:22N 28°08' W 015°26'0 0.0
2017-Feb-08 22:25N 28°08' W 015°26'0 0.0
2017-Feb-08 21:28N 28°08' W 015°26'0 0.0
2017-Feb-08 20:25N 28°08' W 015°26'0 0.0
2017-Feb-08 19:28N 28°08' W 015°26'0 0.0
2017-Feb-08 18:25N 28°08' W 015°26'0 0.0
2017-Feb-08 17:28N 28°08' W 015°26'0 0.0
2017-Feb-08 15:31N 28°08' W 015°26'1 1.1
2017-Feb-08 14:33N 28°08' W 015°25'5 4.5
2017-Feb-08 13:33N 28°12' W 015°24'7 6.5
2017-Feb-08 12:33N 28°12' W 015°32'7 6.5
2017-Feb-08 11:33N 28°13' W 015°39'  

Dump ship's entire track history